Terminal Aerodrome Forecast
Issued by NWS Los Angeles, CA

Home | Current Version | Previous Version | Text Only | Print | Product List | Glossary On
Versions: 1 2 3 4 5 6 7 8 9 10 11 12 13 14 15 16 17 18 19 20 21
000
FTUS46 KLOX 022300
TAFSMX
TAF
KSMX 022334Z 0300/0324 31013KT P6SM SKC
     FM030300 31006KT P6SM BKN006
     FM030600 VRB03KT 2SM BR OVC004
     FM031700 00000KT 4SM BR OVC007
     FM032200 30010KT P6SM SCT020=

USA.gov is the U.S. government's official web portal to all federal, state and local government web resources and services.